createdAt,value
2018-02-21T00:00:41.423Z,85.09
2018-02-21T00:01:41.397Z,85.28
2018-02-21T00:02:41.384Z,85.47
2018-02-21T00:03:41.349Z,85.94
2018-02-21T00:04:41.332Z,86.32
2018-02-21T00:05:41.302Z,86.13
2018-02-21T00:06:41.281Z,86.79
2018-02-21T00:07:41.262Z,86.60
2018-02-21T00:08:41.238Z,86.60
2018-02-21T00:09:41.209Z,87.17
2018-02-21T00:10:41.190Z,86.98
2018-02-21T00:11:41.167Z,87.08
2018-02-21T00:12:41.148Z,86.98
2018-02-21T00:13:41.116Z,86.41
2018-02-21T00:14:41.098Z,86.22
2018-02-21T00:15:41.119Z,87.08
2018-02-21T00:16:41.045Z,87.08
2018-02-21T00:17:41.174Z,86.89
2018-02-21T00:18:40.999Z,87.36
2018-02-21T00:19:40.980Z,87.17
2018-02-21T00:20:40.959Z,87.08
2018-02-21T00:21:41.019Z,86.89
2018-02-21T00:22:40.907Z,86.60
2018-02-21T00:23:40.932Z,86.60
2018-02-21T00:24:40.865Z,86.79
2018-02-21T00:25:40.839Z,86.51
2018-02-21T00:26:40.811Z,86.32
2018-02-21T00:27:40.801Z,86.22
2018-02-21T00:28:40.762Z,86.22
2018-02-21T00:29:40.749Z,86.32
2018-02-21T00:30:40.717Z,86.32
2018-02-21T00:31:40.694Z,86.41
2018-02-21T00:32:40.669Z,87.08
2018-02-21T00:33:40.650Z,86.79
2018-02-21T00:34:40.621Z,87.08
2018-02-21T00:35:40.605Z,87.46
2018-02-21T00:36:40.579Z,86.89
2018-02-21T00:37:40.550Z,86.89
2018-02-21T00:38:40.526Z,86.79
2018-02-21T00:39:40.505Z,87.17
2018-02-21T00:40:40.479Z,87.17
2018-02-21T00:41:40.462Z,87.08
2018-02-21T00:42:40.446Z,86.32
2018-02-21T00:43:40.414Z,86.22
2018-02-21T00:44:40.386Z,86.13
2018-02-21T00:45:40.370Z,86.51
2018-02-21T00:46:40.338Z,86.51
2018-02-21T00:47:40.315Z,85.94
2018-02-21T00:48:40.300Z,85.94
2018-02-21T00:49:40.272Z,85.94
2018-02-21T00:50:40.259Z,85.94
2018-02-21T00:51:40.221Z,85.75
2018-02-21T00:52:40.210Z,85.85
2018-02-21T00:53:40.176Z,86.32
2018-02-21T00:54:40.152Z,86.13
2018-02-21T00:55:40.125Z,86.32
2018-02-21T00:56:40.104Z,86.04
2018-02-21T00:57:40.080Z,86.41
2018-02-21T00:58:40.054Z,86.22
2018-02-21T00:59:40.036Z,86.60
2018-02-21T01:00:40.010Z,86.28
2018-02-21T01:01:39.989Z,87.13
2018-02-21T01:02:39.962Z,87.13
2018-02-21T01:03:39.937Z,87.36
2018-02-21T01:04:39.915Z,87.46
2018-02-21T01:05:39.889Z,86.98
2018-02-21T01:06:39.870Z,86.89
2018-02-21T01:07:39.844Z,86.98
2018-02-21T01:08:39.820Z,87.08
2018-02-21T01:09:39.797Z,86.98
2018-02-21T01:10:39.781Z,87.08
2018-02-21T01:11:39.748Z,87.08
2018-02-21T01:12:39.726Z,86.98
2018-02-21T01:13:39.702Z,86.89
2018-02-21T01:14:39.681Z,86.70
2018-02-21T01:15:39.661Z,86.79
2018-02-21T01:16:39.642Z,86.70
2018-02-21T01:17:39.614Z,86.32
2018-02-21T01:18:39.590Z,85.94
2018-02-21T01:19:39.560Z,86.13
2018-02-21T01:20:39.540Z,85.94
2018-02-21T01:21:39.515Z,86.13
2018-02-21T01:22:39.489Z,86.13
2018-02-21T01:23:39.469Z,86.13
2018-02-21T01:24:39.443Z,86.32
2018-02-21T01:25:39.420Z,86.22
2018-02-21T01:26:39.400Z,86.13
2018-02-21T01:27:39.380Z,86.32
2018-02-21T01:28:39.347Z,86.13
2018-02-21T01:29:39.324Z,86.32
2018-02-21T01:30:39.303Z,86.22
2018-02-21T01:31:39.280Z,86.13
2018-02-21T01:32:39.259Z,86.32
2018-02-21T01:33:39.230Z,86.79
2018-02-21T01:34:39.210Z,86.41
2018-02-21T01:35:39.186Z,86.94
2018-02-21T01:36:39.209Z,87.23
2018-02-21T01:37:39.136Z,87.13
2018-02-21T01:38:39.118Z,87.23
2018-02-21T01:39:39.090Z,87.70
2018-02-21T01:40:39.069Z,88.17
2018-02-21T01:41:39.040Z,87.88
2018-02-21T01:42:39.074Z,87.88
2018-02-21T01:43:38.994Z,87.88
2018-02-21T01:44:38.969Z,87.93
2018-02-21T01:45:38.948Z,87.74
2018-02-21T01:46:38.923Z,87.27
2018-02-21T01:47:38.899Z,87.08
2018-02-21T01:48:38.880Z,87.17
2018-02-21T01:49:38.853Z,87.17
2018-02-21T01:50:38.837Z,87.36
2018-02-21T01:51:38.806Z,86.94
2018-02-21T01:52:38.829Z,86.85
2018-02-21T01:53:38.756Z,87.79
2018-02-21T01:54:38.788Z,88.45
2018-02-21T01:55:38.709Z,88.17
2018-02-21T01:56:38.739Z,88.36
2018-02-21T01:57:38.660Z,88.74
2018-02-21T01:58:38.640Z,88.74
2018-02-21T01:59:38.614Z,88.83
2018-02-21T02:00:38.589Z,88.74
2018-02-21T02:01:38.569Z,88.26
2018-02-21T02:02:38.554Z,88.17
2018-02-21T02:03:38.520Z,88.07
2018-02-21T02:04:38.505Z,88.74
2018-02-21T02:05:38.472Z,88.64
2018-02-21T02:06:38.451Z,88.64
2018-02-21T02:07:38.424Z,88.55
2018-02-21T02:08:38.399Z,88.74
2018-02-21T02:09:38.378Z,88.74
2018-02-21T02:10:38.362Z,88.55
2018-02-21T02:11:38.330Z,88.45
2018-02-21T02:12:38.314Z,88.36
2018-02-21T02:13:38.282Z,88.17
2018-02-21T02:14:38.263Z,88.17
2018-02-21T02:15:38.240Z,87.79
2018-02-21T02:16:38.219Z,87.70
2018-02-21T02:17:38.188Z,88.26
2018-02-21T02:18:38.166Z,87.88
2018-02-21T02:19:38.140Z,87.51
2018-02-21T02:20:38.121Z,87.88
2018-02-21T02:21:38.089Z,87.41
2018-02-21T02:22:38.072Z,87.70
2018-02-21T02:23:38.048Z,87.41
2018-02-21T02:24:38.020Z,87.41
2018-02-21T02:25:38.010Z,87.41
2018-02-21T02:26:37.975Z,87.51
2018-02-21T02:27:37.949Z,87.60
2018-02-21T02:28:37.925Z,87.88
2018-02-21T02:29:37.900Z,87.41
2018-02-21T02:30:37.877Z,87.60
2018-02-21T02:31:37.851Z,87.88
2018-02-21T02:32:37.832Z,87.79
2018-02-21T02:33:37.809Z,87.98
2018-02-21T02:34:37.781Z,87.70
2018-02-21T02:35:37.761Z,87.70
2018-02-21T02:36:37.742Z,88.45
2018-02-21T02:37:37.711Z,88.49
2018-02-21T02:38:37.692Z,88.07
2018-02-21T02:39:37.667Z,87.98
2018-02-21T02:40:37.639Z,87.79
2018-02-21T02:41:37.612Z,87.93
2018-02-21T02:42:37.590Z,87.51
2018-02-21T02:43:37.565Z,87.65
2018-02-21T02:44:37.548Z,87.60
2018-02-21T02:45:37.523Z,87.88
2018-02-21T02:46:37.503Z,87.51
2018-02-21T02:47:37.471Z,87.98
2018-02-21T02:48:37.448Z,88.45
2018-02-21T02:49:37.430Z,89.40
2018-02-21T02:50:37.399Z,89.31
2018-02-21T02:51:37.378Z,89.59
2018-02-21T02:52:37.361Z,89.69
2018-02-21T02:53:37.329Z,89.69
2018-02-21T02:54:37.310Z,89.50
2018-02-21T02:55:37.282Z,89.31
2018-02-21T02:56:37.260Z,89.40
2018-02-21T02:57:37.238Z,89.78
2018-02-21T02:58:37.208Z,89.21
2018-02-21T02:59:37.183Z,89.59
2018-02-21T03:00:37.162Z,89.12
2018-02-21T03:01:37.138Z,89.40
2018-02-21T03:02:37.115Z,89.12
2018-02-21T03:03:37.096Z,89.21
2018-02-21T03:04:37.066Z,89.50
2018-02-21T03:05:37.040Z,89.59
2018-02-21T03:06:37.017Z,89.59
2018-02-21T03:07:36.996Z,90.16
2018-02-21T03:08:36.967Z,90.06
2018-02-21T03:09:36.947Z,90.06
2018-02-21T03:10:36.922Z,90.34
2018-02-21T03:11:36.897Z,89.40
2018-02-21T03:12:36.875Z,89.78
2018-02-21T03:13:36.853Z,90.16
2018-02-21T03:14:36.828Z,89.97
2018-02-21T03:15:36.798Z,90.16
2018-02-21T03:16:36.778Z,90.16
2018-02-21T03:17:36.756Z,90.16
2018-02-21T03:18:36.731Z,89.50
2018-02-21T03:19:36.716Z,90.34
2018-02-21T03:20:36.679Z,90.06
2018-02-21T03:21:36.658Z,90.16
2018-02-21T03:22:36.690Z,89.50
2018-02-21T03:23:36.606Z,90.06
2018-02-21T03:24:36.582Z,90.06
2018-02-21T03:25:36.560Z,89.50
2018-02-21T03:26:36.535Z,90.16
2018-02-21T03:27:36.510Z,90.16
2018-02-21T03:28:36.487Z,89.97
2018-02-21T03:29:36.466Z,89.87
2018-02-21T03:30:36.443Z,89.97
2018-02-21T03:31:36.419Z,90.16
2018-02-21T03:32:36.392Z,90.16
2018-02-21T03:33:36.368Z,89.31
2018-02-21T03:34:36.383Z,89.40
2018-02-21T03:35:36.319Z,89.31
2018-02-21T03:36:36.296Z,89.69
2018-02-21T03:37:36.269Z,90.16
2018-02-21T03:38:36.247Z,89.87
2018-02-21T03:39:36.226Z,90.25
2018-02-21T03:40:36.198Z,89.87
2018-02-21T03:41:36.179Z,89.97
2018-02-21T03:42:36.152Z,90.06
2018-02-21T03:43:36.176Z,90.25
2018-02-21T03:44:36.107Z,90.25
2018-02-21T03:45:36.085Z,89.40
2018-02-21T03:46:36.054Z,89.31
2018-02-21T03:47:36.086Z,89.31
2018-02-21T03:48:36.011Z,89.69
2018-02-21T03:49:36.084Z,89.50
2018-02-21T03:50:35.960Z,89.21
2018-02-21T03:51:35.935Z,89.12
2018-02-21T03:52:35.910Z,89.59
2018-02-21T03:53:35.890Z,90.06
2018-02-21T03:54:35.859Z,89.97
2018-02-21T03:55:35.858Z,89.87
2018-02-21T03:56:35.817Z,90.53
2018-02-21T03:57:35.789Z,90.82
2018-02-21T03:58:35.762Z,90.06
2018-02-21T03:59:35.743Z,89.78
2018-02-21T04:00:35.723Z,89.97
2018-02-21T04:01:35.721Z,90.16
2018-02-21T04:02:35.668Z,89.50
2018-02-21T04:03:35.645Z,89.40
2018-02-21T04:04:35.618Z,89.02
2018-02-21T04:05:35.598Z,89.02
2018-02-21T04:06:35.571Z,89.21
2018-02-21T04:07:35.552Z,89.12
2018-02-21T04:08:35.520Z,89.78
2018-02-21T04:09:35.497Z,89.59
2018-02-21T04:10:35.480Z,89.21
2018-02-21T04:11:35.449Z,89.21
2018-02-21T04:12:35.425Z,89.12
2018-02-21T04:13:35.404Z,89.31
2018-02-21T04:14:35.379Z,89.31
2018-02-21T04:15:35.351Z,89.31
2018-02-21T04:16:35.329Z,89.21
2018-02-21T04:17:35.310Z,89.50
2018-02-21T04:18:35.280Z,89.12
2018-02-21T04:19:35.258Z,88.93
2018-02-21T04:20:35.228Z,89.12
2018-02-21T04:21:35.205Z,89.02
2018-02-21T04:22:35.180Z,89.21
2018-02-21T04:23:35.158Z,89.02
2018-02-21T04:24:35.193Z,89.21
2018-02-21T04:25:35.113Z,89.02
2018-02-21T04:26:35.089Z,88.93
2018-02-21T04:27:35.068Z,89.21
2018-02-21T04:28:35.036Z,89.12
2018-02-21T04:29:35.013Z,89.40
2018-02-21T04:30:34.988Z,89.31
2018-02-21T04:31:34.968Z,89.40
2018-02-21T04:32:34.939Z,89.31
2018-02-21T04:33:34.918Z,89.31
2018-02-21T04:34:34.894Z,89.59
2018-02-21T04:35:34.869Z,89.59
2018-02-21T04:36:34.848Z,90.16
2018-02-21T04:37:34.825Z,89.87
2018-02-21T04:38:34.795Z,90.72
2018-02-21T04:39:34.772Z,89.59
2018-02-21T04:40:34.749Z,90.53
2018-02-21T04:41:34.724Z,90.72
2018-02-21T04:42:34.698Z,90.72
2018-02-21T04:43:34.715Z,89.78
2018-02-21T04:44:34.659Z,90.06
2018-02-21T04:45:34.630Z,89.31
2018-02-21T04:46:34.608Z,89.50
2018-02-21T04:47:34.590Z,89.50
2018-02-21T04:48:34.556Z,89.59
2018-02-21T04:49:34.528Z,89.69
2018-02-21T04:50:34.514Z,89.12
2018-02-21T04:51:34.482Z,89.78
2018-02-21T04:52:34.456Z,89.97
2018-02-21T04:53:34.441Z,89.97
2018-02-21T04:54:34.409Z,89.87
2018-02-21T04:55:34.384Z,89.40
2018-02-21T04:56:34.358Z,89.50
2018-02-21T04:57:34.336Z,89.40
2018-02-21T04:58:34.321Z,89.40
2018-02-21T04:59:34.290Z,89.21
2018-02-21T05:00:34.317Z,89.21
2018-02-21T05:01:34.240Z,89.31
2018-02-21T05:02:34.232Z,89.21
2018-02-21T05:03:34.194Z,89.40
2018-02-21T05:04:34.218Z,89.59
2018-02-21T05:05:34.145Z,89.87
2018-02-21T05:06:34.219Z,89.40
2018-02-21T05:07:34.094Z,89.50
2018-02-21T05:08:34.119Z,89.40
2018-02-21T05:09:34.049Z,90.25
2018-02-21T05:10:34.130Z,90.16
2018-02-21T05:11:33.998Z,89.87
2018-02-21T05:12:33.974Z,89.97
2018-02-21T05:13:33.954Z,90.06
2018-02-21T05:14:34.009Z,90.06
2018-02-21T05:15:33.900Z,89.97
2018-02-21T05:16:34.050Z,89.87
2018-02-21T05:17:33.858Z,89.78
2018-02-21T05:18:33.866Z,89.87
2018-02-21T05:19:33.810Z,89.87
2018-02-21T05:20:33.854Z,90.06
2018-02-21T05:21:33.760Z,90.16
2018-02-21T05:22:33.830Z,89.87
2018-02-21T05:23:33.706Z,90.06
2018-02-21T05:24:33.701Z,89.97
2018-02-21T05:25:33.658Z,89.97
2018-02-21T05:26:33.642Z,90.16
2018-02-21T05:27:33.610Z,90.16
2018-02-21T05:28:33.585Z,90.16
2018-02-21T05:29:33.562Z,89.87
2018-02-21T05:30:33.541Z,90.06
2018-02-21T05:31:33.510Z,89.78
2018-02-21T05:32:33.510Z,90.16
2018-02-21T05:33:33.466Z,90.06
2018-02-21T05:34:33.452Z,90.63
2018-02-21T05:35:33.421Z,90.16
2018-02-21T05:36:33.407Z,89.87
2018-02-21T05:37:33.389Z,89.97
2018-02-21T05:38:33.344Z,89.87
2018-02-21T05:39:33.319Z,90.06
2018-02-21T05:40:33.293Z,89.78
2018-02-21T05:41:33.270Z,89.78
2018-02-21T05:42:33.245Z,90.06
2018-02-21T05:43:33.219Z,89.87
2018-02-21T05:44:33.198Z,90.16
2018-02-21T05:45:33.172Z,90.16
2018-02-21T05:46:33.150Z,89.78
2018-02-21T05:47:33.122Z,89.78
2018-02-21T05:48:33.101Z,89.78
2018-02-21T05:49:33.084Z,89.87
2018-02-21T05:50:33.056Z,89.64
2018-02-21T05:51:33.026Z,89.97
2018-02-21T05:52:33.002Z,90.49
2018-02-21T05:53:32.984Z,89.97
2018-02-21T05:54:32.962Z,89.59
2018-02-21T05:55:32.926Z,89.59
2018-02-21T05:56:32.907Z,90.39
2018-02-21T05:57:32.879Z,89.78
2018-02-21T05:58:32.860Z,89.83
2018-02-21T05:59:32.830Z,90.44
2018-02-21T06:00:32.817Z,89.97
2018-02-21T06:01:32.781Z,90.44
2018-02-21T06:02:32.762Z,90.34
2018-02-21T06:03:32.739Z,90.39
2018-02-21T06:04:32.710Z,90.20
2018-02-21T06:05:32.690Z,90.30
2018-02-21T06:06:32.661Z,90.39
2018-02-21T06:07:32.641Z,90.20
2018-02-21T06:08:32.610Z,90.49
2018-02-21T06:09:32.591Z,90.68
2018-02-21T06:10:32.580Z,90.58
2018-02-21T06:11:32.540Z,90.58
2018-02-21T06:12:32.519Z,90.68
2018-02-21T06:13:32.488Z,90.58
2018-02-21T06:14:32.481Z,90.68
2018-02-21T06:15:32.442Z,90.30
2018-02-21T06:16:32.425Z,90.39
2018-02-21T06:17:32.390Z,90.77
2018-02-21T06:18:32.376Z,90.58
2018-02-21T06:19:32.340Z,90.86
2018-02-21T06:20:32.316Z,90.49
2018-02-21T06:21:32.292Z,90.49
2018-02-21T06:22:32.269Z,90.58
2018-02-21T06:23:32.295Z,90.20
2018-02-21T06:24:32.219Z,90.20
2018-02-21T06:25:32.200Z,90.49
2018-02-21T06:26:32.171Z,89.92
2018-02-21T06:27:32.149Z,90.20
2018-02-21T06:28:32.123Z,90.11
2018-02-21T06:29:32.098Z,90.30
2018-02-21T06:30:32.076Z,90.68
2018-02-21T06:31:32.051Z,90.58
2018-02-21T06:32:32.021Z,90.68
2018-02-21T06:33:32.000Z,90.11
2018-02-21T06:34:31.976Z,90.39
2018-02-21T06:35:31.948Z,90.20
2018-02-21T06:36:31.924Z,90.20
2018-02-21T06:37:31.907Z,90.39
2018-02-21T06:38:31.923Z,90.30
2018-02-21T06:39:31.851Z,90.34
2018-02-21T06:40:31.832Z,90.16
2018-02-21T06:41:31.806Z,90.58
2018-02-21T06:42:31.779Z,90.06
2018-02-21T06:43:31.749Z,90.06
2018-02-21T06:44:31.730Z,90.34
2018-02-21T06:45:31.702Z,90.53
2018-02-21T06:46:31.678Z,90.39
2018-02-21T06:47:31.657Z,90.49
2018-02-21T06:48:31.630Z,90.16
2018-02-21T06:49:31.607Z,90.53
2018-02-21T06:50:31.581Z,90.34
2018-02-21T06:51:31.566Z,90.39
2018-02-21T06:52:31.537Z,89.54
2018-02-21T06:53:31.506Z,90.53
2018-02-21T06:54:31.481Z,89.92
2018-02-21T06:55:31.466Z,90.49
2018-02-21T06:56:31.435Z,90.53
2018-02-21T06:57:31.410Z,90.53
2018-02-21T06:58:31.387Z,89.50
2018-02-21T06:59:31.363Z,90.53
2018-02-21T07:00:31.346Z,89.97
2018-02-21T07:01:31.317Z,89.87
2018-02-21T07:02:31.291Z,89.59
2018-02-21T07:03:31.267Z,88.93
2018-02-21T07:04:31.244Z,89.31
2018-02-21T07:05:31.221Z,88.64
2018-02-21T07:06:31.200Z,88.21
2018-02-21T07:07:31.171Z,88.02
2018-02-21T07:08:31.153Z,87.55
2018-02-21T07:09:31.133Z,87.46
2018-02-21T07:10:31.114Z,86.74
2018-02-21T07:11:31.081Z,86.27
2018-02-21T07:12:31.057Z,85.99
2018-02-21T07:13:31.034Z,84.94
2018-02-21T07:14:31.021Z,84.89
2018-02-21T07:15:31.068Z,83.94
2018-02-21T07:16:30.970Z,83.18
2018-02-21T07:17:30.953Z,82.71
2018-02-21T07:18:30.928Z,82.18
2018-02-21T07:19:30.904Z,81.81
2018-02-21T07:20:30.889Z,81.05
2018-02-21T07:21:30.864Z,80.76
2018-02-21T07:22:30.849Z,80.67
2018-02-21T07:23:30.826Z,79.76
2018-02-21T07:24:30.806Z,79.57
2018-02-21T07:25:30.789Z,78.72
2018-02-21T07:26:30.770Z,78.56
2018-02-21T07:27:30.748Z,77.81
2018-02-21T07:28:30.736Z,77.43
2018-02-21T07:29:30.710Z,77.24
2018-02-21T07:30:30.692Z,76.01
2018-02-21T07:31:30.671Z,74.01
2018-02-21T07:32:30.664Z,73.19
2018-02-21T07:33:30.639Z,71.67
2018-02-21T07:34:30.620Z,70.44
2018-02-21T07:35:30.602Z,69.34
2018-02-21T07:36:30.582Z,66.77
2018-02-21T07:37:30.574Z,66.58
2018-02-21T07:38:30.553Z,65.25
2018-02-21T07:39:30.531Z,63.83
2018-02-21T07:40:30.519Z,63.01
2018-02-21T07:41:30.497Z,61.29
2018-02-21T07:42:30.485Z,60.72
2018-02-21T07:43:30.463Z,60.25
2018-02-21T07:44:30.452Z,59.96
2018-02-21T07:45:30.438Z,59.42
2018-02-21T07:46:30.420Z,58.85
2018-02-21T07:47:30.410Z,58.85
2018-02-21T07:48:30.398Z,58.09
2018-02-21T07:49:30.413Z,58.37
2018-02-21T07:50:30.360Z,58.57
2018-02-21T07:51:30.360Z,58.47
2018-02-21T07:52:30.340Z,58.00
2018-02-21T07:53:30.329Z,57.04
2018-02-21T07:54:30.312Z,56.98
2018-02-21T07:55:30.297Z,56.22
2018-02-21T07:56:30.287Z,54.25
2018-02-21T07:57:30.279Z,53.52
2018-02-21T07:58:30.259Z,52.56
2018-02-21T07:59:30.345Z,52.28
2018-02-21T08:00:30.254Z,52.18
2018-02-21T08:01:30.227Z,51.82
2018-02-21T08:02:30.212Z,50.87
2018-02-21T08:03:30.197Z,50.30
2018-02-21T08:04:30.195Z,49.54
2018-02-21T08:05:30.172Z,49.54
2018-02-21T08:06:30.192Z,48.78
2018-02-21T08:07:30.158Z,48.61
2018-02-21T08:08:30.145Z,48.13
2018-02-21T08:09:30.132Z,47.11
2018-02-21T08:10:30.128Z,46.15
2018-02-21T08:11:30.109Z,45.58
2018-02-21T08:12:30.108Z,45.78
2018-02-21T08:13:30.101Z,45.42
2018-02-21T08:14:30.082Z,45.06
2018-02-21T08:15:30.074Z,44.20
2018-02-21T08:16:30.062Z,43.89
2018-02-21T08:17:30.059Z,44.01
2018-02-21T08:18:30.049Z,43.82
2018-02-21T08:19:30.037Z,43.53
2018-02-21T08:20:30.035Z,43.53
2018-02-21T08:21:30.014Z,43.33
2018-02-21T08:22:30.010Z,42.48
2018-02-21T08:23:30.010Z,42.40
2018-02-21T08:24:29.995Z,42.31
2018-02-21T08:25:29.983Z,41.55
2018-02-21T08:26:29.996Z,41.35
2018-02-21T08:27:29.965Z,41.74
2018-02-21T08:28:29.956Z,41.55
2018-02-21T08:29:29.952Z,40.99
2018-02-21T08:30:29.947Z,40.42
2018-02-21T08:31:29.939Z,40.01
2018-02-21T08:32:29.926Z,41.26
2018-02-21T08:33:29.919Z,41.43
2018-02-21T08:34:29.908Z,41.26
2018-02-21T08:35:29.911Z,40.42
2018-02-21T08:36:29.893Z,39.75
2018-02-21T08:37:29.887Z,39.75
2018-02-21T08:38:29.882Z,39.27
2018-02-21T08:39:29.869Z,39.08
2018-02-21T08:40:29.861Z,39.27
2018-02-21T08:41:29.853Z,38.81
2018-02-21T08:42:29.850Z,38.98
2018-02-21T08:43:29.837Z,39.27
2018-02-21T08:44:29.831Z,39.20
2018-02-21T08:45:29.825Z,39.10
2018-02-21T08:46:29.817Z,38.53
2018-02-21T08:47:29.823Z,38.07
2018-02-21T08:48:29.804Z,37.21
2018-02-21T08:49:29.794Z,36.94
2018-02-21T08:50:29.791Z,36.36
2018-02-21T08:51:29.792Z,36.10
2018-02-21T08:52:29.778Z,35.98
2018-02-21T08:53:29.770Z,35.81
2018-02-21T08:54:29.759Z,35.69
2018-02-21T08:55:29.755Z,35.88
2018-02-21T08:56:29.748Z,35.90
2018-02-21T08:57:29.742Z,35.71
2018-02-21T08:58:29.735Z,34.85
2018-02-21T08:59:29.725Z,34.75
2018-02-21T09:00:29.721Z,35.12
2018-02-21T09:01:29.719Z,34.55
2018-02-21T09:02:29.709Z,35.20
2018-02-21T09:03:29.699Z,35.31
2018-02-21T09:04:29.700Z,35.14
2018-02-21T09:05:29.688Z,34.77
2018-02-21T09:06:29.738Z,34.75
2018-02-21T09:07:29.678Z,34.37
2018-02-21T09:08:29.682Z,34.47
2018-02-21T09:09:29.673Z,34.37
2018-02-21T09:10:29.692Z,34.55
2018-02-21T09:11:29.649Z,34.47
2018-02-21T09:12:29.643Z,34.75
2018-02-21T09:13:29.638Z,34.53
2018-02-21T09:14:29.638Z,35.18
2018-02-21T09:15:29.625Z,36.61
2018-02-21T09:16:29.624Z,36.25
2018-02-21T09:17:29.614Z,36.17
2018-02-21T09:18:29.610Z,35.22
2018-02-21T09:19:29.599Z,34.75
2018-02-21T09:20:29.600Z,33.62
2018-02-21T09:21:29.591Z,33.41
2018-02-21T09:22:29.590Z,33.62
2018-02-21T09:23:29.582Z,33.33
2018-02-21T09:24:29.569Z,33.24
2018-02-21T09:25:29.577Z,33.04
2018-02-21T09:26:29.557Z,33.14
2018-02-21T09:27:29.557Z,32.76
2018-02-21T09:28:29.550Z,32.67
2018-02-21T09:29:29.596Z,33.04
2018-02-21T09:30:29.539Z,32.86
2018-02-21T09:31:29.575Z,32.67
2018-02-21T09:32:29.517Z,32.28
2018-02-21T09:33:29.547Z,32.09
2018-02-21T09:34:29.515Z,32.47
2018-02-21T09:35:29.509Z,32.47
2018-02-21T09:36:29.494Z,33.04
2018-02-21T09:37:29.489Z,32.86
2018-02-21T09:38:29.493Z,32.26
2018-02-21T09:39:29.477Z,32.86
2018-02-21T09:40:29.478Z,32.76
2018-02-21T09:41:29.464Z,32.87
2018-02-21T09:42:29.458Z,31.84
2018-02-21T09:43:29.457Z,32.20
2018-02-21T09:44:29.451Z,32.39
2018-02-21T09:45:29.441Z,32.20
2018-02-21T09:46:29.433Z,31.53
2018-02-21T09:47:29.429Z,31.13
2018-02-21T09:48:29.426Z,31.32
2018-02-21T09:49:29.420Z,31.88
2018-02-21T09:50:29.417Z,32.44
2018-02-21T09:51:29.404Z,32.73
2018-02-21T09:52:29.407Z,32.86
2018-02-21T09:53:29.394Z,31.88
2018-02-21T09:54:29.386Z,32.25
2018-02-21T09:55:29.379Z,33.07
2018-02-21T09:56:29.377Z,34.51
2018-02-21T09:57:29.369Z,34.61
2018-02-21T09:58:29.373Z,34.43
2018-02-21T09:59:29.356Z,33.80
2018-02-21T10:00:29.345Z,32.55
2018-02-21T10:01:29.342Z,31.99
2018-02-21T10:02:29.342Z,32.09
2018-02-21T10:03:29.329Z,31.42
2018-02-21T10:04:29.319Z,30.75
2018-02-21T10:05:29.315Z,31.80
2018-02-21T10:06:29.303Z,31.13
2018-02-21T10:07:29.295Z,30.36
2018-02-21T10:08:29.450Z,30.09
2018-02-21T10:09:29.283Z,29.71
2018-02-21T10:10:29.277Z,29.50
2018-02-21T10:11:29.259Z,29.50
2018-02-21T10:12:29.258Z,30.55
2018-02-21T10:13:29.246Z,31.04
2018-02-21T10:14:29.240Z,31.71
2018-02-21T10:15:29.231Z,31.80
2018-02-21T10:16:29.280Z,31.15
2018-02-21T10:17:29.212Z,30.64
2018-02-21T10:18:29.210Z,30.94
2018-02-21T10:19:29.198Z,30.18
2018-02-21T10:20:29.188Z,30.73
2018-02-21T10:21:29.187Z,30.65
2018-02-21T10:22:29.182Z,30.94
2018-02-21T10:23:29.169Z,31.90
2018-02-21T10:24:29.154Z,31.42
2018-02-21T10:25:29.150Z,30.75
2018-02-21T10:26:29.150Z,31.05
2018-02-21T10:27:29.130Z,30.96
2018-02-21T10:28:29.119Z,30.76
2018-02-21T10:29:29.118Z,30.47
2018-02-21T10:30:29.103Z,30.38
2018-02-21T10:31:29.107Z,30.84
2018-02-21T10:32:29.091Z,31.80
2018-02-21T10:33:29.078Z,31.90
2018-02-21T10:34:29.069Z,31.42
2018-02-21T10:35:29.056Z,30.75
2018-02-21T10:36:29.049Z,30.84
2018-02-21T10:37:29.039Z,30.84
2018-02-21T10:38:29.061Z,30.75
2018-02-21T10:39:29.063Z,30.33
2018-02-21T10:40:29.018Z,31.66
2018-02-21T10:41:29.003Z,32.14
2018-02-21T10:42:29.000Z,32.52
2018-02-21T10:43:28.988Z,32.62
2018-02-21T10:44:28.981Z,32.81
2018-02-21T10:45:28.968Z,33.40
2018-02-21T10:46:28.959Z,32.89
2018-02-21T10:47:28.948Z,33.95
2018-02-21T10:48:28.949Z,33.67
2018-02-21T10:49:28.931Z,33.65
2018-02-21T10:50:28.936Z,33.92
2018-02-21T10:51:28.914Z,35.05
2018-02-21T10:52:28.913Z,36.00
2018-02-21T10:53:28.895Z,36.29
2018-02-21T10:54:28.880Z,36.21
2018-02-21T10:55:28.875Z,35.55
2018-02-21T10:56:28.862Z,36.14
2018-02-21T10:57:28.848Z,34.51
2018-02-21T10:58:28.840Z,34.61
2018-02-21T10:59:28.833Z,34.20
2018-02-21T11:00:28.817Z,34.89
2018-02-21T11:01:28.815Z,34.61
2018-02-21T11:02:28.798Z,34.63
2018-02-21T11:03:28.785Z,33.48
2018-02-21T11:04:28.780Z,33.09
2018-02-21T11:05:28.781Z,32.92
2018-02-21T11:06:28.757Z,33.11
2018-02-21T11:07:28.740Z,31.95
2018-02-21T11:08:28.737Z,32.12
2018-02-21T11:09:28.719Z,32.79
2018-02-21T11:10:28.712Z,33.95
2018-02-21T11:11:28.706Z,33.86
2018-02-21T11:12:28.695Z,32.90
2018-02-21T11:13:28.692Z,32.70
2018-02-21T11:14:28.674Z,32.79
2018-02-21T11:15:28.664Z,32.70
2018-02-21T11:16:28.660Z,33.36
2018-02-21T11:17:28.637Z,33.75
2018-02-21T11:18:28.627Z,33.94
2018-02-21T11:19:28.610Z,34.22
2018-02-21T11:20:28.602Z,34.22
2018-02-21T11:21:28.593Z,33.19
2018-02-21T11:22:28.581Z,33.48
2018-02-21T11:23:28.583Z,33.44
2018-02-21T11:24:28.557Z,34.40
2018-02-21T11:25:28.545Z,34.70
2018-02-21T11:26:28.534Z,33.83
2018-02-21T11:27:28.519Z,34.11
2018-02-21T11:28:28.508Z,34.40
2018-02-21T11:29:28.506Z,34.38
2018-02-21T11:30:28.489Z,34.95
2018-02-21T11:31:28.475Z,34.57
2018-02-21T11:32:28.469Z,34.09
2018-02-21T11:33:28.457Z,34.55
2018-02-21T11:34:28.445Z,35.13
2018-02-21T11:35:28.431Z,35.72
2018-02-21T11:36:28.431Z,35.14
2018-02-21T11:37:28.408Z,35.24
2018-02-21T11:38:28.399Z,34.86
2018-02-21T11:39:28.390Z,34.38
2018-02-21T11:40:28.374Z,34.38
2018-02-21T11:41:28.371Z,34.82
2018-02-21T11:42:28.359Z,36.16
2018-02-21T11:43:28.340Z,36.18
2018-02-21T11:44:28.330Z,36.08
2018-02-21T11:45:28.319Z,36.10
2018-02-21T11:46:28.310Z,36.00
2018-02-21T11:47:28.298Z,35.74
2018-02-21T11:48:28.284Z,34.00
2018-02-21T11:49:28.272Z,34.27
2018-02-21T11:50:28.404Z,35.13
2018-02-21T11:51:28.249Z,35.99
2018-02-21T11:52:28.243Z,35.72
2018-02-21T11:53:28.222Z,35.72
2018-02-21T11:54:28.219Z,35.51
2018-02-21T11:55:28.195Z,35.62
2018-02-21T11:56:28.187Z,35.62
2018-02-21T11:57:28.177Z,34.67
2018-02-21T11:58:28.220Z,34.48
2018-02-21T11:59:28.151Z,34.67
2018-02-21T12:00:28.243Z,34.38
2018-02-21T12:01:28.123Z,35.05
2018-02-21T12:02:28.119Z,34.97
2018-02-21T12:03:28.097Z,34.40
2018-02-21T12:04:28.152Z,33.64
2018-02-21T12:05:28.079Z,33.73
2018-02-21T12:06:28.075Z,33.83
2018-02-21T12:07:28.049Z,33.31
2018-02-21T12:08:28.042Z,35.70
2018-02-21T12:09:28.038Z,36.19
2018-02-21T12:10:28.067Z,36.10
2018-02-21T12:11:28.004Z,35.22
2018-02-21T12:12:28.038Z,34.92
2018-02-21T12:13:27.978Z,35.76
2018-02-21T12:14:27.972Z,36.33
2018-02-21T12:15:27.951Z,36.81
2018-02-21T12:16:27.939Z,36.62
2018-02-21T12:17:27.932Z,37.38
2018-02-21T12:18:27.928Z,37.95
2018-02-21T12:19:27.901Z,38.62
2018-02-21T12:20:27.890Z,38.24
2018-02-21T12:21:27.874Z,38.43
2018-02-21T12:22:27.867Z,38.64
2018-02-21T12:23:27.848Z,37.59
2018-02-21T12:24:27.840Z,37.40
2018-02-21T12:25:27.827Z,37.30
2018-02-21T12:26:27.813Z,36.25
2018-02-21T12:27:27.798Z,36.44
2018-02-21T12:28:27.789Z,36.07
2018-02-21T12:29:27.784Z,36.35
2018-02-21T12:30:27.759Z,36.60
2018-02-21T12:31:27.756Z,37.73
2018-02-21T12:32:27.738Z,39.25
2018-02-21T12:33:27.723Z,40.58
2018-02-21T12:34:27.707Z,41.25
2018-02-21T12:35:27.700Z,40.48
2018-02-21T12:36:27.681Z,40.41
2018-02-21T12:37:27.664Z,39.86
2018-02-21T12:38:27.657Z,39.86
2018-02-21T12:39:27.639Z,39.08
2018-02-21T12:40:27.629Z,39.94
2018-02-21T12:41:27.616Z,39.84
2018-02-21T12:42:27.601Z,39.46
2018-02-21T12:43:27.593Z,40.12
2018-02-21T12:44:27.573Z,40.03
2018-02-21T12:45:27.560Z,40.05
2018-02-21T12:46:27.545Z,39.58
2018-02-21T12:47:27.532Z,39.58
2018-02-21T12:48:27.514Z,38.91
2018-02-21T12:49:27.508Z,39.00
2018-02-21T12:50:27.488Z,40.01
2018-02-21T12:51:27.479Z,40.80
2018-02-21T12:52:27.460Z,40.72